Time;durP1;ratioP1;P1;durP2;ratioP2;P2;SDS_P1;SDS_P2;PMS_P1;PMS_P2;Temp;Humidity;BMP_temperature;BMP_pressure;BME280_temperature;BME280_humidity;BME280_pressure;Samples;Min_cycle;Max_cycle;Signal;HPM_P1;HPM_P2
2024/02/14 00:01:08;;;;;;;1.60;1.50;;;9.20;99.90;;;;;;5039695;28;20108;-37
2024/02/14 00:03:38;;;;;;;1.20;1.10;;;9.20;99.90;;;;;;5039544;28;20032;-35
2024/02/14 00:06:06;;;;;;;1.42;1.33;;;9.20;99.90;;;;;;5039591;28;20567;-35
2024/02/14 00:08:32;;;;;;;1.20;1.10;;;9.20;99.90;;;;;;5039501;28;20685;-34
2024/02/14 00:10:58;;;;;;;1.63;1.40;;;9.30;99.90;;;;;;5038990;28;20049;-34
2024/02/14 00:13:23;;;;;;;2.28;1.52;;;9.30;99.90;;;;;;5038580;28;20031;-38
2024/02/14 00:15:51;;;;;;;1.55;1.30;;;9.30;99.90;;;;;;5039696;28;20041;-37
2024/02/14 00:18:16;;;;;;;2.00;1.80;;;9.30;99.90;;;;;;5039526;28;20024;-36
2024/02/14 00:20:42;;;;;;;1.67;1.38;;;9.30;99.90;;;;;;5038573;28;20531;-35
2024/02/14 00:23:07;;;;;;;1.77;1.60;;;9.30;99.90;;;;;;5039540;28;20025;-34
2024/02/14 00:25:33;;;;;;;2.17;1.60;;;9.20;99.90;;;;;;5038841;28;20033;-36
2024/02/14 00:28:03;;;;;;;2.03;1.52;;;9.30;99.90;;;;;;5038685;28;20113;-35
2024/02/14 00:30:29;;;;;;;1.45;1.35;;;9.30;99.90;;;;;;5038903;28;20028;-36
2024/02/14 00:32:55;;;;;;;1.60;1.50;;;9.30;99.90;;;;;;5038866;28;20024;-37
2024/02/14 00:35:21;;;;;;;3.33;1.40;;;9.30;99.90;;;;;;5038001;28;20029;-34
2024/02/14 00:37:47;;;;;;;1.50;1.40;;;9.30;99.90;;;;;;5039238;28;20040;-36
2024/02/14 00:40:16;;;;;;;1.85;1.75;;;9.30;99.90;;;;;;5039466;28;20031;-35
2024/02/14 00:42:42;;;;;;;1.58;1.48;;;9.20;99.90;;;;;;5039462;28;20487;-33
2024/02/14 00:45:10;;;;;;;2.47;1.77;;;9.20;99.90;;;;;;5039012;28;20031;-38
2024/02/14 00:47:36;;;;;;;1.60;1.50;;;9.20;99.90;;;;;;5038246;28;20106;-34
2024/02/14 00:50:03;;;;;;;1.80;1.70;;;9.30;99.90;;;;;;5039197;28;20041;-36
2024/02/14 00:52:29;;;;;;;1.45;1.35;;;9.30;99.90;;;;;;5039639;28;20056;-40
2024/02/14 00:54:54;;;;;;;2.65;1.58;;;9.30;99.90;;;;;;5038608;28;20163;-37
2024/02/14 00:57:20;;;;;;;2.00;1.85;;;9.20;99.90;;;;;;5038877;28;20118;-39
2024/02/14 00:59:46;;;;;;;2.55;1.88;;;9.30;99.90;;;;;;5039415;28;20481;-35
2024/02/14 01:02:12;;;;;;;2.42;1.75;;;9.30;99.90;;;;;;5037920;28;20503;-35
2024/02/14 01:04:37;;;;;;;1.80;1.70;;;9.20;99.90;;;;;;5038747;28;20514;-35
2024/02/14 01:07:03;;;;;;;1.50;1.35;;;9.30;99.90;;;;;;5038199;28;20698;-34
2024/02/14 01:09:29;;;;;;;1.80;1.70;;;9.30;99.90;;;;;;5037474;28;20739;-35
2024/02/14 01:11:55;;;;;;;2.20;2.03;;;9.30;99.90;;;;;;5038303;28;20484;-32
2024/02/14 01:14:22;;;;;;;2.53;2.03;;;9.30;99.90;;;;;;5038809;28;20026;-37
2024/02/14 01:16:47;;;;;;;2.20;1.95;;;9.30;99.90;;;;;;5037686;28;20032;-37
2024/02/14 01:19:13;;;;;;;2.60;1.88;;;9.30;99.90;;;;;;5038251;28;20854;-36
2024/02/14 01:21:39;;;;;;;2.30;2.10;;;9.30;99.90;;;;;;5038881;28;20035;-38
2024/02/14 01:24:05;;;;;;;3.58;2.42;;;9.40;99.90;;;;;;5039735;28;20021;-36
2024/02/14 01:26:32;;;;;;;2.35;2.15;;;9.40;99.90;;;;;;5040671;28;20056;-37
2024/02/14 01:28:57;;;;;;;2.00;1.70;;;9.40;99.90;;;;;;5040881;28;20073;-35
2024/02/14 01:31:23;;;;;;;3.50;2.22;;;9.50;99.90;;;;;;5041005;28;20908;-35
2024/02/14 01:33:48;;;;;;;2.45;2.25;;;9.50;99.90;;;;;;5041213;28;20025;-36
2024/02/14 01:36:14;;;;;;;2.58;2.38;;;9.50;99.90;;;;;;5042189;28;20507;-34
2024/02/14 01:38:40;;;;;;;2.42;2.20;;;9.50;99.90;;;;;;5041519;28;20828;-37
2024/02/14 01:41:05;;;;;;;1.95;1.80;;;9.50;99.90;;;;;;5042007;28;20029;-40
2024/02/14 01:43:31;;;;;;;2.83;2.40;;;9.50;99.90;;;;;;5042410;28;20106;-37
2024/02/14 01:46:05;;;;;;;3.88;2.75;;;9.50;99.90;;;;;;5041899;28;20111;-37
2024/02/14 01:48:31;;;;;;;2.78;2.58;;;9.60;99.90;;;;;;5041920;28;20878;-38
2024/02/14 01:50:59;;;;;;;3.53;2.40;;;9.60;99.90;;;;;;5041916;28;20021;-36
2024/02/14 01:53:25;;;;;;;2.88;2.55;;;9.50;99.90;;;;;;5041970;28;20025;-37
2024/02/14 01:55:52;;;;;;;2.97;2.40;;;9.60;99.90;;;;;;5042612;28;20037;-37
2024/02/14 01:58:18;;;;;;;3.13;2.83;;;9.60;99.90;;;;;;5040760;28;20017;-33
2024/02/14 02:00:44;;;;;;;2.72;2.53;;;9.60;99.90;;;;;;5042067;28;20067;-38
2024/02/14 02:03:10;;;;;;;3.28;2.55;;;9.60;99.90;;;;;;5041815;28;20021;-38
2024/02/14 02:05:36;;;;;;;3.00;2.63;;;9.70;99.90;;;;;;5042204;28;20455;-34
2024/02/14 02:08:02;;;;;;;3.38;2.40;;;9.70;99.90;;;;;;5041763;28;20951;-38
2024/02/14 02:10:29;;;;;;;3.17;2.40;;;9.70;99.90;;;;;;5041833;28;20074;-34
2024/02/14 02:12:59;;;;;;;3.67;2.60;;;9.70;99.90;;;;;;5040647;28;20024;-37
2024/02/14 02:15:25;;;;;;;3.10;2.80;;;9.80;99.90;;;;;;5041369;28;20106;-36
2024/02/14 02:17:53;;;;;;;3.10;2.80;;;9.80;99.90;;;;;;5041726;28;20483;-35
2024/02/14 02:20:19;;;;;;;2.92;2.72;;;9.80;99.90;;;;;;5041023;28;20387;-35
2024/02/14 02:22:48;;;;;;;4.63;3.60;;;9.80;99.90;;;;;;5041979;28;20800;-32
2024/02/14 02:25:14;;;;;;;3.75;3.38;;;9.80;99.90;;;;;;5040498;28;20048;-36
2024/02/14 02:27:40;;;;;;;3.50;2.97;;;9.90;99.90;;;;;;5041388;28;20120;-37
2024/02/14 02:30:06;;;;;;;3.88;3.45;;;9.90;99.90;;;;;;5040915;28;20426;-31
2024/02/14 02:32:32;;;;;;;4.93;2.80;;;9.80;99.90;;;;;;5039955;28;20376;-37
2024/02/14 02:34:59;;;;;;;3.17;2.88;;;9.80;99.90;;;;;;5040164;28;20802;-33
2024/02/14 02:37:25;;;;;;;6.85;3.63;;;9.80;99.90;;;;;;5041004;28;20037;-34
2024/02/14 02:39:51;;;;;;;3.97;3.20;;;9.80;99.90;;;;;;5041534;28;20017;-35
2024/02/14 02:42:18;;;;;;;3.30;2.92;;;9.80;99.90;;;;;;5041146;28;20036;-34
2024/02/14 02:44:46;;;;;;;3.42;3.13;;;9.80;99.90;;;;;;5041641;28;20025;-34
2024/02/14 02:47:12;;;;;;;3.72;2.88;;;9.80;99.90;;;;;;5040127;28;20053;-34
2024/02/14 02:49:38;;;;;;;3.67;3.38;;;9.80;99.90;;;;;;5040445;28;20327;-36
2024/02/14 02:52:04;;;;;;;3.90;3.47;;;9.80;99.90;;;;;;5041067;28;20017;-36
2024/02/14 02:54:29;;;;;;;4.45;3.40;;;9.80;99.90;;;;;;5040007;28;20369;-36
2024/02/14 02:56:55;;;;;;;3.65;3.28;;;9.80;99.90;;;;;;5040795;28;20064;-36
2024/02/14 02:59:21;;;;;;;4.40;3.42;;;9.80;99.90;;;;;;5039346;28;20407;-34
2024/02/14 03:01:49;;;;;;;3.85;3.50;;;9.80;99.90;;;;;;5040107;28;20502;-38
2024/02/14 03:04:15;;;;;;;3.45;3.15;;;9.80;99.90;;;;;;5040842;28;20029;-37
2024/02/14 03:06:43;;;;;;;3.95;3.50;;;9.80;99.90;;;;;;5041111;28;20640;-36
2024/02/14 03:09:09;;;;;;;4.07;3.60;;;9.80;99.90;;;;;;5039807;28;20142;-36
2024/02/14 03:11:37;;;;;;;3.97;3.58;;;9.80;99.90;;;;;;5039999;28;20562;-37
2024/02/14 03:14:02;;;;;;;3.45;3.15;;;9.80;99.90;;;;;;5040200;28;20040;-37
2024/02/14 03:16:29;;;;;;;3.63;2.80;;;9.80;99.90;;;;;;5039448;28;20041;-36
2024/02/14 03:18:54;;;;;;;3.22;2.92;;;9.90;99.90;;;;;;5040519;28;20025;-35
2024/02/14 03:21:20;;;;;;;4.45;2.95;;;9.90;99.90;;;;;;5040386;28;20086;-37
2024/02/14 03:23:46;;;;;;;3.17;2.70;;;9.90;99.90;;;;;;5040056;28;20087;-37
2024/02/14 03:26:11;;;;;;;3.35;2.80;;;9.90;99.90;;;;;;5039840;28;20804;-34
2024/02/14 03:28:37;;;;;;;3.17;2.65;;;9.90;99.90;;;;;;5040504;28;20031;-37
2024/02/14 03:31:02;;;;;;;3.17;2.38;;;9.90;99.90;;;;;;5040990;28;20021;-37
2024/02/14 03:33:29;;;;;;;3.20;2.90;;;9.90;99.90;;;;;;5040535;28;20040;-35
2024/02/14 03:35:55;;;;;;;3.10;2.78;;;10.00;99.90;;;;;;5040185;28;20033;-36
2024/02/14 03:38:27;;;;;;;3.65;2.88;;;10.00;99.90;;;;;;5038800;28;20855;-36
2024/02/14 03:40:54;;;;;;;;;;;9.90;99.90;;;;;;5040978;28;20029;-37
2024/02/14 03:43:19;;;;;;;3.78;2.90;;;10.00;99.90;;;;;;5039776;28;19908;-36
2024/02/14 03:45:46;;;;;;;3.45;3.15;;;9.90;99.90;;;;;;5040079;28;20312;-36
2024/02/14 03:48:12;;;;;;;5.57;3.60;;;9.90;99.90;;;;;;5040225;28;20088;-36
2024/02/14 03:50:40;;;;;;;4.13;3.35;;;9.90;99.90;;;;;;5038859;28;20033;-37
2024/02/14 03:53:06;;;;;;;4.30;3.85;;;10.00;99.90;;;;;;5039624;28;20435;-36
2024/02/14 03:55:32;;;;;;;4.00;3.60;;;10.00;99.90;;;;;;5039865;28;20580;-33
2024/02/14 03:57:57;;;;;;;4.25;3.83;;;10.10;99.90;;;;;;5039332;28;20025;-36
2024/02/14 04:00:23;;;;;;;4.03;3.72;;;10.10;99.90;;;;;;5040077;28;20477;-34
2024/02/14 04:02:50;;;;;;;4.80;4.10;;;10.10;99.90;;;;;;5039398;28;20025;-37
2024/02/14 04:05:16;;;;;;;4.88;4.47;;;10.10;99.90;;;;;;5038981;28;20086;-36
2024/02/14 04:07:44;;;;;;;5.07;3.85;;;10.20;99.90;;;;;;5039629;28;20028;-35
2024/02/14 04:10:09;;;;;;;4.95;4.45;;;10.20;99.90;;;;;;5039113;28;20633;-36
2024/02/14 04:12:35;;;;;;;4.75;4.22;;;10.20;99.90;;;;;;5038613;28;20028;-35
2024/02/14 04:15:01;;;;;;;4.53;4.13;;;10.30;99.90;;;;;;5039161;28;20029;-36
2024/02/14 04:17:26;;;;;;;5.55;4.18;;;10.20;99.90;;;;;;5039292;28;20033;-35
2024/02/14 04:19:52;;;;;;;4.60;4.10;;;10.30;99.90;;;;;;5039369;28;20021;-34
2024/02/14 04:22:18;;;;;;;5.45;4.20;;;10.30;99.90;;;;;;5039728;28;20548;-35
2024/02/14 04:24:44;;;;;;;5.18;4.15;;;10.30;99.90;;;;;;5035955;28;20128;-36
2024/02/14 04:27:09;;;;;;;4.75;4.35;;;10.30;99.90;;;;;;5038375;28;20025;-37
2024/02/14 04:29:35;;;;;;;5.82;4.57;;;10.30;99.90;;;;;;5038291;28;20070;-35
2024/02/14 04:32:01;;;;;;;4.55;4.00;;;10.30;99.90;;;;;;5039070;28;20013;-34
2024/02/14 04:34:27;;;;;;;4.78;4.38;;;10.40;99.90;;;;;;5038728;28;20040;-35
2024/02/14 04:36:52;;;;;;;6.10;4.90;;;10.40;99.90;;;;;;5039050;28;20478;-35
2024/02/14 04:39:19;;;;;;;6.10;5.50;;;10.30;99.90;;;;;;5038638;28;20135;-36
2024/02/14 04:41:44;;;;;;;5.90;5.25;;;10.40;99.90;;;;;;5038799;28;20033;-35
2024/02/14 04:44:10;;;;;;;5.63;5.03;;;10.40;99.90;;;;;;5039173;28;20080;-35
2024/02/14 04:46:37;;;;;;;8.00;5.30;;;10.40;99.90;;;;;;5038132;28;20462;-33
2024/02/14 04:49:03;;;;;;;6.00;5.45;;;10.40;99.90;;;;;;5038813;28;20047;-34
2024/02/14 04:51:30;;;;;;;5.47;4.75;;;10.40;99.90;;;;;;5038616;28;20756;-34
2024/02/14 04:53:58;;;;;;;6.75;5.25;;;10.40;99.90;;;;;;5036800;28;20017;-35
2024/02/14 04:56:26;;;;;;;4.90;4.45;;;10.40;99.90;;;;;;5038443;28;20762;-37
2024/02/14 04:58:55;;;;;;;5.82;5.22;;;10.40;99.90;;;;;;5042217;28;20379;-37
2024/02/14 05:01:20;;;;;;;5.00;4.50;;;10.40;99.90;;;;;;5041124;28;20028;-33
2024/02/14 05:03:46;;;;;;;5.03;4.53;;;10.40;99.90;;;;;;5041223;28;20353;-34
2024/02/14 05:06:12;;;;;;;6.13;4.60;;;10.40;99.90;;;;;;5041402;28;20507;-37
2024/02/14 05:08:37;;;;;;;5.65;4.53;;;10.50;99.90;;;;;;5041370;28;20025;-37
2024/02/14 05:11:03;;;;;;;4.80;4.40;;;10.50;99.90;;;;;;5042931;28;20061;-36
2024/02/14 05:13:30;;;;;;;6.28;4.63;;;10.50;99.90;;;;;;5042914;28;20115;-33
2024/02/14 05:15:56;;;;;;;4.90;4.00;;;10.50;99.90;;;;;;5041714;28;20554;-35
2024/02/14 05:18:21;;;;;;;4.65;4.22;;;10.50;99.90;;;;;;5043182;28;20032;-36
2024/02/14 05:20:47;;;;;;;4.75;4.35;;;10.50;99.90;;;;;;5042951;28;20749;-36
2024/02/14 05:23:13;;;;;;;6.03;4.47;;;10.60;99.90;;;;;;5041836;28;20021;-36
2024/02/14 05:25:39;;;;;;;6.65;5.30;;;10.60;99.90;;;;;;5042694;28;20542;-35
2024/02/14 05:28:05;;;;;;;5.50;5.00;;;10.60;99.90;;;;;;5042150;28;20024;-35
2024/02/14 05:30:31;;;;;;;5.00;4.50;;;10.60;99.90;;;;;;5041868;28;20739;-36
2024/02/14 05:32:57;;;;;;;5.20;4.70;;;10.60;99.90;;;;;;5042624;28;20503;-34
2024/02/14 05:35:23;;;;;;;5.30;4.65;;;10.60;99.90;;;;;;5042414;28;20029;-36
2024/02/14 05:37:49;;;;;;;4.60;4.20;;;10.60;99.90;;;;;;5042125;28;20060;-34
2024/02/14 05:40:15;;;;;;;5.53;4.35;;;10.60;99.90;;;;;;5042317;28;20151;-35
2024/02/14 05:42:41;;;;;;;4.75;4.20;;;10.60;99.90;;;;;;5042263;28;20051;-35
2024/02/14 05:45:09;;;;;;;5.30;4.45;;;10.60;99.90;;;;;;5041660;28;20028;-37
2024/02/14 05:47:35;;;;;;;4.97;4.13;;;10.60;99.90;;;;;;5041863;28;20135;-36
2024/02/14 05:50:01;;;;;;;4.28;3.85;;;10.60;99.90;;;;;;5042004;28;20178;-35
2024/02/14 05:52:27;;;;;;;4.80;4.40;;;10.60;99.90;;;;;;5042279;28;20024;-36
2024/02/14 05:54:52;;;;;;;4.72;4.15;;;10.60;99.90;;;;;;5041818;28;20483;-34
2024/02/14 05:57:18;;;;;;;4.38;3.97;;;10.60;99.90;;;;;;5040546;28;20036;-37
2024/02/14 05:59:43;;;;;;;4.30;3.85;;;10.70;99.90;;;;;;5042113;28;20846;-35
2024/02/14 06:02:09;;;;;;;4.30;3.90;;;10.60;99.90;;;;;;5041552;28;20112;-36
2024/02/14 06:04:35;;;;;;;4.53;4.13;;;10.60;99.90;;;;;;5041188;28;20795;-34
2024/02/14 06:07:02;;;;;;;4.57;4.13;;;10.70;99.90;;;;;;5041619;28;20470;-36
2024/02/14 06:09:29;;;;;;;4.15;3.78;;;10.70;99.90;;;;;;5041278;28;20053;-33
2024/02/14 06:11:54;;;;;;;4.60;4.10;;;10.60;99.90;;;;;;5041238;28;20036;-36
2024/02/14 06:14:20;;;;;;;4.03;3.67;;;10.70;99.90;;;;;;5042284;28;20150;-36
2024/02/14 06:16:45;;;;;;;4.47;4.07;;;10.70;99.90;;;;;;5041440;28;20033;-33
2024/02/14 06:19:11;;;;;;;4.05;3.75;;;10.70;99.90;;;;;;5040902;28;20013;-35
2024/02/14 06:21:37;;;;;;;4.90;3.95;;;10.60;99.90;;;;;;5041396;28;20032;-37
2024/02/14 06:24:05;;;;;;;4.82;4.38;;;10.70;99.90;;;;;;5040982;28;20028;-36
2024/02/14 06:26:33;;;;;;;4.25;3.78;;;10.70;99.90;;;;;;5040320;28;20060;-38
2024/02/14 06:28:58;;;;;;;4.32;3.90;;;10.70;99.90;;;;;;5041248;28;20082;-34
2024/02/14 06:31:24;;;;;;;4.50;4.10;;;10.70;99.90;;;;;;5041026;28;20036;-38
2024/02/14 06:33:50;;;;;;;5.05;3.83;;;10.70;99.90;;;;;;5039871;28;20012;-38
2024/02/14 06:36:15;;;;;;;4.82;4.43;;;10.70;99.90;;;;;;5041345;28;20154;-37
2024/02/14 06:38:41;;;;;;;4.28;3.88;;;10.70;99.90;;;;;;5041106;28;20029;-36
2024/02/14 06:41:06;;;;;;;5.40;3.83;;;10.70;99.90;;;;;;5040464;28;20037;-35
2024/02/14 06:43:32;;;;;;;4.20;3.80;;;10.70;99.90;;;;;;5041046;28;20017;-37
2024/02/14 06:45:58;;;;;;;4.68;4.13;;;10.70;99.90;;;;;;5041516;28;20021;-37
2024/02/14 06:48:24;;;;;;;4.57;4.22;;;10.70;99.90;;;;;;5040613;28;20020;-38
2024/02/14 06:50:52;;;;;;;4.32;4.00;;;10.70;99.90;;;;;;5041282;28;20021;-37
2024/02/14 06:53:18;;;;;;;4.40;4.00;;;10.70;99.90;;;;;;5039968;28;20531;-37
2024/02/14 06:55:44;;;;;;;4.40;4.05;;;10.70;99.90;;;;;;5041128;28;20021;-37
2024/02/14 06:58:10;;;;;;;4.65;4.25;;;10.70;99.90;;;;;;5038188;28;20498;-35
2024/02/14 07:00:35;;;;;;;4.50;4.10;;;10.70;99.90;;;;;;5039192;28;20029;-36
2024/02/14 07:03:01;;;;;;;4.55;4.15;;;10.70;99.90;;;;;;5040195;28;20032;-37
2024/02/14 07:05:29;;;;;;;3.97;3.67;;;10.70;99.90;;;;;;5040349;28;20472;-38
2024/02/14 07:07:55;;;;;;;3.88;3.55;;;10.70;99.90;;;;;;5038928;28;20479;-36
2024/02/14 07:10:20;;;;;;;4.03;3.72;;;10.80;99.90;;;;;;5039910;28;20084;-31
2024/02/14 07:12:46;;;;;;;4.22;3.92;;;10.80;99.90;;;;;;5041120;28;20111;-37
2024/02/14 07:15:11;;;;;;;3.92;3.60;;;10.80;99.90;;;;;;5039235;28;20136;-38
2024/02/14 07:17:38;;;;;;;4.20;3.90;;;10.80;99.90;;;;;;5039715;28;20043;-36
2024/02/14 07:20:05;;;;;;;4.03;3.72;;;10.80;99.90;;;;;;5038878;28;20498;-35
2024/02/14 07:22:30;;;;;;;4.03;3.72;;;10.80;99.90;;;;;;5038285;28;20992;-36
2024/02/14 07:24:59;;;;;;;4.75;4.35;;;10.80;99.90;;;;;;5039547;28;20017;-37
2024/02/14 07:27:31;;;;;;;4.70;4.30;;;10.80;99.90;;;;;;5038907;28;20028;-37
2024/02/14 07:29:58;;;;;;;4.07;3.78;;;10.80;99.90;;;;;;5038351;28;20404;-37
2024/02/14 07:32:23;;;;;;;3.55;3.28;;;10.80;99.90;;;;;;5039228;28;20697;-36
2024/02/14 07:34:58;;;;;;;3.95;3.65;;;10.90;99.90;;;;;;5039116;28;20029;-37
2024/02/14 07:37:24;;;;;;;4.55;4.15;;;10.90;99.90;;;;;;5038711;28;20029;-37
2024/02/14 07:39:56;;;;;;;4.50;4.10;;;10.90;99.90;;;;;;5039140;28;20071;-37
2024/02/14 07:42:22;;;;;;;4.60;3.87;;;10.90;99.90;;;;;;5038239;28;20470;-34
2024/02/14 07:44:47;;;;;;;4.63;4.22;;;10.90;99.90;;;;;;5039494;28;20483;-37
2024/02/14 07:47:13;;;;;;;4.47;4.07;;;10.90;99.90;;;;;;5039593;28;20017;-37
2024/02/14 07:49:40;;;;;;;5.00;4.50;;;10.90;99.90;;;;;;5038147;28;20029;-39
2024/02/14 07:52:06;;;;;;;4.85;4.45;;;11.00;99.90;;;;;;5037731;28;20662;-33
2024/02/14 07:54:32;;;;;;;5.10;4.70;;;11.00;99.90;;;;;;5036788;28;20112;-34
2024/02/14 07:56:57;;;;;;;5.13;4.72;;;11.00;99.90;;;;;;5036655;28;20639;-33
2024/02/14 07:59:23;;;;;;;5.25;4.75;;;11.00;99.90;;;;;;5038278;28;20044;-35
2024/02/14 08:01:51;;;;;;;5.53;5.03;;;11.00;99.90;;;;;;5038915;28;20036;-36
2024/02/14 08:04:17;;;;;;;5.10;4.60;;;11.00;99.90;;;;;;5038575;28;20021;-36
2024/02/14 08:06:48;;;;;;;6.57;4.80;;;11.00;99.90;;;;;;5039316;28;20028;-34
2024/02/14 08:09:14;;;;;;;5.10;4.65;;;11.10;99.90;;;;;;5038857;28;20048;-33
2024/02/14 08:11:43;;;;;;;5.20;4.80;;;11.10;99.90;;;;;;5037913;28;20040;-37
2024/02/14 08:14:09;;;;;;;4.72;4.32;;;11.10;99.90;;;;;;5036962;28;20037;-34
2024/02/14 08:16:35;;;;;;;4.85;4.30;;;11.10;99.90;;;;;;5038182;28;20037;-36
2024/02/14 08:19:02;;;;;;;4.90;4.22;;;11.10;99.90;;;;;;5038985;28;20032;-31
2024/02/14 08:21:28;;;;;;;4.78;4.38;;;11.10;99.90;;;;;;5039343;28;20057;-37
2024/02/14 08:23:58;;;;;;;4.93;4.47;;;11.10;99.90;;;;;;5038710;28;20218;-35
2024/02/14 08:26:24;;;;;;;5.28;4.78;;;11.10;99.90;;;;;;5038137;28;20036;-35
2024/02/14 08:28:50;;;;;;;4.97;4.47;;;11.20;99.90;;;;;;5039804;28;20048;-35
2024/02/14 08:31:20;;;;;;;5.60;4.65;;;11.20;99.90;;;;;;5037739;28;20606;-36
2024/02/14 08:33:45;;;;;;;5.13;4.65;;;11.10;99.90;;;;;;5038241;28;20028;-36
2024/02/14 08:36:11;;;;;;;5.40;4.90;;;11.20;99.90;;;;;;5039601;28;20035;-38
2024/02/14 08:38:37;;;;;;;4.72;4.22;;;11.20;99.90;;;;;;5038931;28;20036;-34
2024/02/14 08:41:03;;;;;;;4.70;4.30;;;11.20;99.90;;;;;;5038324;28;20032;-34
2024/02/14 08:43:29;;;;;;;5.32;4.72;;;11.20;99.90;;;;;;5038787;28;20511;-38
2024/02/14 08:45:56;;;;;;;4.85;3.42;;;11.20;99.90;;;;;;5038839;28;20129;-37
2024/02/14 08:48:22;;;;;;;4.72;3.70;;;11.20;99.90;;;;;;5038621;28;20025;-37
2024/02/14 08:50:48;;;;;;;4.40;4.00;;;11.20;99.90;;;;;;5039546;28;20021;-38
2024/02/14 08:53:14;;;;;;;4.63;4.22;;;11.20;99.90;;;;;;5037832;28;20465;-34
2024/02/14 08:55:43;;;;;;;5.18;3.72;;;11.20;99.90;;;;;;5038867;28;20039;-33
2024/02/14 08:58:11;;;;;;;3.90;3.60;;;11.20;99.90;;;;;;5038882;28;20433;-35
2024/02/14 09:00:38;;;;;;;4.65;3.97;;;11.30;99.90;;;;;;5038930;28;20024;-36
2024/02/14 09:03:04;;;;;;;4.07;3.78;;;11.30;99.90;;;;;;5038763;28;20094;-39
2024/02/14 09:05:30;;;;;;;4.60;3.80;;;11.30;99.90;;;;;;5039129;28;20013;-34
2024/02/14 09:07:55;;;;;;;4.70;3.50;;;11.30;99.90;;;;;;5038287;28;20029;-34
2024/02/14 09:10:21;;;;;;;4.00;3.70;;;11.30;99.90;;;;;;5037062;28;20041;-38
2024/02/14 09:12:47;;;;;;;4.07;3.70;;;11.30;99.90;;;;;;5037685;28;20086;-37
2024/02/14 09:15:13;;;;;;;4.25;3.83;;;11.30;99.90;;;;;;5036079;28;20781;-36
2024/02/14 09:17:40;;;;;;;3.83;3.53;;;11.40;99.90;;;;;;5037597;28;20127;-36
2024/02/14 09:20:09;;;;;;;4.07;3.78;;;11.40;99.90;;;;;;5038010;28;20016;-38
2024/02/14 09:22:36;;;;;;;4.13;3.72;;;11.40;99.90;;;;;;5037353;28;20619;-38
2024/02/14 09:25:04;;;;;;;4.07;3.67;;;11.50;99.90;;;;;;5037835;28;20017;-35
2024/02/14 09:27:30;;;;;;;3.90;3.60;;;11.50;99.90;;;;;;5037867;28;20127;-37
2024/02/14 09:29:55;;;;;;;3.60;3.30;;;11.50;99.90;;;;;;5037340;28;20025;-37
2024/02/14 09:32:22;;;;;;;3.30;3.00;;;11.50;99.90;;;;;;5038211;28;20036;-36
2024/02/14 09:34:48;;;;;;;3.75;3.33;;;11.50;99.90;;;;;;5038126;28;20422;-37
2024/02/14 09:37:13;;;;;;;3.72;3.42;;;11.50;99.90;;;;;;5038477;28;20090;-37
2024/02/14 09:39:39;;;;;;;4.03;3.60;;;11.50;99.90;;;;;;5038842;28;20037;-36
2024/02/14 09:42:15;;;;;;;3.60;3.30;;;11.50;99.90;;;;;;5037974;28;20060;-37
2024/02/14 09:44:41;;;;;;;4.40;3.00;;;11.50;99.90;;;;;;5042661;28;20021;-35
2024/02/14 09:47:09;;;;;;;4.00;3.60;;;11.50;99.90;;;;;;5042428;28;20486;-36
2024/02/14 09:49:38;;;;;;;3.97;3.50;;;11.50;99.90;;;;;;5040869;28;20578;-33
2024/02/14 09:52:06;;;;;;;3.85;3.40;;;11.50;99.90;;;;;;5041840;28;20136;-36
2024/02/14 09:54:35;;;;;;;4.32;3.08;;;11.50;99.90;;;;;;5042074;28;20017;-37
2024/02/14 09:57:05;;;;;;;4.47;3.85;;;11.60;99.90;;;;;;5038968;28;20598;-34
2024/02/14 09:59:32;;;;;;;4.38;3.75;;;11.60;99.90;;;;;;5041715;28;20021;-34
2024/02/14 10:01:58;;;;;;;4.10;3.70;;;11.60;99.90;;;;;;5041024;28;20549;-37
2024/02/14 10:04:24;;;;;;;5.00;3.78;;;11.60;99.90;;;;;;5040543;28;20029;-35
2024/02/14 10:06:51;;;;;;;4.18;3.70;;;11.60;99.90;;;;;;5042113;28;20029;-35
2024/02/14 10:09:23;;;;;;;3.95;3.55;;;11.60;99.90;;;;;;5040814;28;20071;-36
2024/02/14 10:11:49;;;;;;;4.28;3.88;;;11.60;99.90;;;;;;5030898;28;20424;-36
2024/02/14 10:14:15;;;;;;;4.60;4.18;;;11.70;99.90;;;;;;5042107;28;20074;-37
2024/02/14 10:16:41;;;;;;;6.30;4.05;;;11.70;99.90;;;;;;5041447;28;20032;-34
2024/02/14 10:19:18;;;;;;;4.53;3.47;;;11.70;99.90;;;;;;5040231;28;20559;-36
2024/02/14 10:21:43;;;;;;;4.68;4.10;;;11.70;99.90;;;;;;5038318;28;20053;-35
2024/02/14 10:24:15;;;;;;;4.93;4.13;;;11.70;99.90;;;;;;5041135;28;20950;-33
2024/02/14 10:26:44;;;;;;;4.40;4.00;;;11.80;99.90;;;;;;5041676;28;20033;-36
2024/02/14 10:29:11;;;;;;;4.15;3.75;;;11.80;99.90;;;;;;5041019;28;20471;-33
2024/02/14 10:31:37;;;;;;;5.30;3.47;;;11.80;99.90;;;;;;5040832;28;20120;-35
2024/02/14 10:34:07;;;;;;;5.57;4.10;;;11.80;99.90;;;;;;5041726;28;20028;-36
2024/02/14 10:36:35;;;;;;;5.80;4.45;;;11.80;99.90;;;;;;5041277;28;20047;-35
2024/02/14 10:39:03;;;;;;;5.70;3.92;;;11.90;99.90;;;;;;5021371;28;20384;-34
2024/02/14 10:41:35;;;;;;;4.53;3.75;;;11.90;99.90;;;;;;5035461;28;20207;-35
2024/02/14 10:44:05;;;;;;;4.00;3.50;;;11.90;99.90;;;;;;5041866;28;20126;-35
2024/02/14 10:46:33;;;;;;;5.55;4.07;;;11.90;99.90;;;;;;5040804;28;20040;-33
2024/02/14 10:49:03;;;;;;;4.80;3.83;;;11.90;99.90;;;;;;5041612;28;20032;-36
2024/02/14 10:51:31;;;;;;;4.60;4.18;;;12.00;99.90;;;;;;5041333;28;20040;-36
2024/02/14 10:53:59;;;;;;;4.07;3.33;;;12.00;99.90;;;;;;5039472;28;20460;-35
2024/02/14 10:56:28;;;;;;;5.18;3.63;;;12.00;99.90;;;;;;5041428;28;20032;-37
2024/02/14 10:58:59;;;;;;;5.55;4.32;;;12.00;99.90;;;;;;5040673;28;20539;-35
2024/02/14 11:01:31;;;;;;;5.40;4.07;;;12.00;99.90;;;;;;5040320;28;20029;-36
2024/02/14 11:03:59;;;;;;;5.00;3.63;;;12.10;99.90;;;;;;5040325;28;20079;-36
2024/02/14 11:06:26;;;;;;;4.50;3.50;;;12.10;99.90;;;;;;5039708;28;20423;-37
2024/02/14 11:09:07;;;;;;;3.78;3.47;;;12.10;99.90;;;;;;5040402;28;20037;-43
2024/02/14 11:11:34;;;;;;;4.28;3.88;;;12.10;99.90;;;;;;5040217;28;20111;-37
2024/02/14 11:13:59;;;;;;;4.03;3.63;;;12.10;99.90;;;;;;5039814;28;20886;-36
2024/02/14 11:16:33;;;;;;;4.72;3.95;;;12.20;99.90;;;;;;5040248;28;20107;-37
2024/02/14 11:19:12;;;;;;;4.88;3.70;;;12.20;99.90;;;;;;5040556;28;20029;-35
2024/02/14 11:21:43;;;;;;;6.32;4.65;;;12.20;99.90;;;;;;5039809;28;20156;-35
2024/02/14 11:24:17;;;;;;;4.35;3.70;;;12.20;99.90;;;;;;5039478;28;20116;-36
2024/02/14 11:26:47;;;;;;;5.63;4.78;;;12.20;99.90;;;;;;5040062;28;20465;-38
2024/02/14 11:29:16;;;;;;;5.53;4.10;;;12.30;99.90;;;;;;5039045;28;20037;-38
2024/02/14 11:31:43;;;;;;;6.05;3.90;;;12.30;99.90;;;;;;5040693;28;20108;-37
2024/02/14 11:34:12;;;;;;;5.70;4.30;;;12.30;99.90;;;;;;5040194;28;20031;-37
2024/02/14 11:36:40;;;;;;;4.03;3.63;;;12.30;99.90;;;;;;5039209;28;20033;-35
2024/02/14 11:39:06;;;;;;;4.13;3.67;;;12.30;99.90;;;;;;5039243;28;20033;-37
2024/02/14 11:41:35;;;;;;;4.45;3.50;;;12.30;99.90;;;;;;5039233;28;20232;-38
2024/02/14 11:44:05;;;;;;;4.30;3.90;;;12.40;99.90;;;;;;5038526;28;20480;-38
2024/02/14 11:46:35;;;;;;;6.28;4.32;;;12.40;99.90;;;;;;5039392;28;20071;-37
2024/02/14 11:49:03;;;;;;;4.30;3.47;;;12.40;99.90;;;;;;5037811;28;20075;-38
2024/02/14 11:51:32;;;;;;;3.97;3.67;;;12.40;99.90;;;;;;5038293;28;20025;-38
2024/02/14 11:54:04;;;;;;;4.70;4.03;;;12.40;99.90;;;;;;5038954;28;20115;-34
2024/02/14 11:56:33;;;;;;;4.18;3.75;;;12.40;99.90;;;;;;5037924;28;20389;-35
2024/02/14 11:59:02;;;;;;;3.65;3.33;;;12.40;99.90;;;;;;5037764;28;20021;-34
2024/02/14 12:01:29;;;;;;;4.28;3.30;;;12.40;99.90;;;;;;5039536;28;20028;-36
2024/02/14 12:04:04;;;;;;;4.32;3.47;;;12.40;99.90;;;;;;5037638;28;20028;-37
2024/02/14 12:06:34;;;;;;;5.05;3.40;;;12.40;99.90;;;;;;5037217;28;20021;-35
2024/02/14 12:09:08;;;;;;;3.95;3.58;;;12.40;99.90;;;;;;5037198;28;20043;-37
2024/02/14 12:11:39;;;;;;;4.10;3.47;;;12.40;99.90;;;;;;5037330;28;20075;-38
2024/02/14 12:14:08;;;;;;;3.97;2.90;;;12.40;99.90;;;;;;5038165;28;20057;-38
2024/02/14 12:16:37;;;;;;;3.78;3.40;;;12.40;99.90;;;;;;5038379;28;20412;-37
2024/02/14 12:19:10;;;;;;;4.03;3.53;;;12.50;99.90;;;;;;5038513;28;20035;-35
2024/02/14 12:21:37;;;;;;;4.25;3.22;;;12.50;99.90;;;;;;5039324;28;20561;-37
2024/02/14 12:24:04;;;;;;;3.47;3.10;;;12.40;99.90;;;;;;5038741;28;20467;-35
2024/02/14 12:26:31;;;;;;;3.65;3.00;;;12.50;99.90;;;;;;5039936;28;20086;-38
2024/02/14 12:28:57;;;;;;;3.97;3.38;;;12.50;99.90;;;;;;5038783;28;20081;-36
2024/02/14 12:31:24;;;;;;;3.40;3.10;;;12.50;99.90;;;;;;5038196;28;20020;-36
2024/02/14 12:33:52;;;;;;;3.42;3.08;;;12.50;99.90;;;;;;5039559;28;20099;-36
2024/02/14 12:36:18;;;;;;;2.92;2.70;;;12.50;99.90;;;;;;5038764;28;20044;-35
2024/02/14 12:38:44;;;;;;;3.40;2.60;;;12.50;99.90;;;;;;5038106;28;20025;-35
2024/02/14 12:41:10;;;;;;;2.90;2.70;;;12.60;99.90;;;;;;5038592;28;20116;-34
2024/02/14 12:43:36;;;;;;;2.92;2.53;;;12.60;99.90;;;;;;5038374;28;20035;-35
2024/02/14 12:46:04;;;;;;;2.97;2.50;;;12.60;99.90;;;;;;5037858;28;20043;-38
2024/02/14 12:48:30;;;;;;;2.80;2.55;;;12.60;99.90;;;;;;5038606;28;20543;-36